createdAt,value
2022-11-24T00:01:16.819Z,99.90
2022-11-24T00:03:45.812Z,99.90
2022-11-24T00:06:14.581Z,99.90
2022-11-24T00:08:43.347Z,99.90
2022-11-24T00:11:31.722Z,99.90
2022-11-24T00:13:59.193Z,99.90
2022-11-24T00:16:33.296Z,99.90
2022-11-24T00:19:01.997Z,99.90
2022-11-24T00:21:31.663Z,99.90
2022-11-24T00:23:59.095Z,99.90
2022-11-24T00:26:31.441Z,99.90
2022-11-24T00:29:03.287Z,99.90
2022-11-24T00:31:32.623Z,99.90
2022-11-24T00:34:05.503Z,99.90
2022-11-24T00:36:34.474Z,99.90
2022-11-24T00:39:04.560Z,99.90
2022-11-24T00:41:31.757Z,99.90
2022-11-24T00:43:58.902Z,99.90
2022-11-24T00:46:27.091Z,99.90
2022-11-24T00:48:54.400Z,99.90
2022-11-24T00:51:23.654Z,99.90
2022-11-24T00:53:50.676Z,99.90
2022-11-24T00:56:17.463Z,99.90
2022-11-24T00:58:44.323Z,99.90
2022-11-24T01:01:17.960Z,99.90
2022-11-24T01:03:45.487Z,99.90
2022-11-24T01:06:17.831Z,99.90
2022-11-24T01:08:45.469Z,99.90
2022-11-24T01:11:21.842Z,99.90
2022-11-24T01:13:51.725Z,99.90
2022-11-24T01:16:34.706Z,99.90
2022-11-24T01:19:01.743Z,99.90
2022-11-24T01:21:28.518Z,99.90
2022-11-24T01:23:55.359Z,99.90
2022-11-24T01:26:23.343Z,99.90
2022-11-24T01:28:54.909Z,99.90
2022-11-24T01:31:21.901Z,99.90
2022-11-24T01:33:49.001Z,99.90
2022-11-24T01:36:16.071Z,99.90
2022-11-24T01:38:42.953Z,99.90
2022-11-24T01:41:14.824Z,99.90
2022-11-24T01:43:43.650Z,99.90
2022-11-24T01:46:19.237Z,99.90
2022-11-24T01:49:08.413Z,99.90
2022-11-24T01:51:41.005Z,99.90
2022-11-24T01:54:22.592Z,99.90
2022-11-24T01:56:53.535Z,99.90
2022-11-24T01:59:21.820Z,99.90
2022-11-24T02:01:51.503Z,99.90
2022-11-24T02:04:22.884Z,99.90
2022-11-24T02:06:52.521Z,99.90
2022-11-24T02:09:42.220Z,99.90
2022-11-24T02:12:09.673Z,99.90
2022-11-24T02:14:39.175Z,99.90
2022-11-24T02:17:06.115Z,99.90
2022-11-24T02:19:51.317Z,99.90
2022-11-24T02:22:34.785Z,99.90
2022-11-24T02:25:05.909Z,99.90
2022-11-24T02:27:32.758Z,99.90
2022-11-24T02:29:59.683Z,99.90
2022-11-24T02:32:28.217Z,99.90
2022-11-24T02:35:06.037Z,99.90
2022-11-24T02:37:32.867Z,99.90
2022-11-24T02:39:59.734Z,99.90
2022-11-24T02:42:31.167Z,99.90
2022-11-24T02:45:00.607Z,99.90
2022-11-24T02:47:27.816Z,99.90
2022-11-24T02:49:54.838Z,99.90
2022-11-24T02:52:21.674Z,99.90
2022-11-24T02:54:48.457Z,99.90
2022-11-24T02:57:15.698Z,99.90
2022-11-24T02:59:42.552Z,99.90
2022-11-24T03:02:09.376Z,99.90
2022-11-24T03:04:36.591Z,99.90
2022-11-24T03:07:03.654Z,99.90
2022-11-24T03:09:30.716Z,99.90
2022-11-24T03:11:57.464Z,99.90
2022-11-24T03:14:24.344Z,99.90
2022-11-24T03:16:51.151Z,99.90
2022-11-24T03:19:17.951Z,99.90
2022-11-24T03:21:45.276Z,99.90
2022-11-24T03:24:12.049Z,99.90
2022-11-24T03:26:38.916Z,99.90
2022-11-24T03:29:05.839Z,99.90
2022-11-24T03:31:32.738Z,99.90
2022-11-24T03:33:59.709Z,99.90
2022-11-24T03:36:26.880Z,99.90
2022-11-24T03:38:53.757Z,99.90
2022-11-24T03:41:20.558Z,99.90
2022-11-24T03:43:47.408Z,99.90
2022-11-24T03:46:14.288Z,99.90
2022-11-24T03:48:41.172Z,99.90
2022-11-24T03:51:08.023Z,99.90
2022-11-24T03:53:34.796Z,99.90
2022-11-24T03:56:02.047Z,99.90
2022-11-24T03:58:29.967Z,99.90
2022-11-24T04:00:57.201Z,99.90
2022-11-24T04:03:24.591Z,99.90
2022-11-24T04:05:51.899Z,99.90
2022-11-24T04:08:19.086Z,99.90
2022-11-24T04:10:50.411Z,99.90
2022-11-24T04:13:18.841Z,99.90
2022-11-24T04:15:45.735Z,99.90
2022-11-24T04:18:13.154Z,99.90
2022-11-24T04:20:41.935Z,99.90
2022-11-24T04:23:10.141Z,99.90
2022-11-24T04:25:37.520Z,99.90
2022-11-24T04:28:05.019Z,99.90
2022-11-24T04:30:32.138Z,99.90
2022-11-24T04:32:58.972Z,99.90
2022-11-24T04:35:25.975Z,99.90
2022-11-24T04:37:52.924Z,99.90
2022-11-24T04:40:20.425Z,99.90
2022-11-24T04:42:56.739Z,99.90
2022-11-24T04:45:24.264Z,99.90
2022-11-24T04:47:51.302Z,99.90
2022-11-24T04:50:18.233Z,99.90
2022-11-24T04:52:45.506Z,99.90
2022-11-24T04:55:12.612Z,99.90
2022-11-24T04:57:39.614Z,99.90
2022-11-24T05:00:07.519Z,99.90
2022-11-24T05:02:34.430Z,99.90
2022-11-24T05:05:01.296Z,99.90
2022-11-24T05:07:28.242Z,99.90
2022-11-24T05:09:59.445Z,99.90
2022-11-24T05:12:29.479Z,99.90
2022-11-24T05:14:56.544Z,99.90
2022-11-24T05:17:23.328Z,99.90
2022-11-24T05:19:50.133Z,99.90
2022-11-24T05:22:16.974Z,99.90
2022-11-24T05:24:43.741Z,99.90
2022-11-24T05:27:11.108Z,99.90
2022-11-24T05:29:37.886Z,99.90
2022-11-24T05:32:04.944Z,99.90
2022-11-24T05:34:31.995Z,99.90
2022-11-24T05:37:00.040Z,99.90
2022-11-24T05:39:26.889Z,99.90
2022-11-24T05:41:53.691Z,99.90
2022-11-24T05:44:20.521Z,99.90
2022-11-24T05:46:47.367Z,99.90
2022-11-24T05:49:14.191Z,99.90
2022-11-24T05:51:41.170Z,99.90
2022-11-24T05:54:08.084Z,99.90
2022-11-24T05:56:34.948Z,99.90
2022-11-24T05:59:06.668Z,99.90
2022-11-24T06:01:36.393Z,99.90
2022-11-24T06:04:03.285Z,99.90
2022-11-24T06:06:30.048Z,99.90
2022-11-24T06:08:56.851Z,99.90
2022-11-24T06:11:23.644Z,99.90
2022-11-24T06:13:50.508Z,99.90
2022-11-24T06:16:17.484Z,99.90
2022-11-24T06:18:44.388Z,99.90
2022-11-24T06:21:12.034Z,99.90
2022-11-24T06:23:39.701Z,99.90
2022-11-24T06:26:07.014Z,99.90
2022-11-24T06:28:33.844Z,99.90
2022-11-24T06:31:02.497Z,99.90
2022-11-24T06:33:34.444Z,99.90
2022-11-24T06:36:03.333Z,99.90
2022-11-24T06:38:30.553Z,99.90
2022-11-24T06:41:16.764Z,99.90
2022-11-24T06:43:43.978Z,99.90
2022-11-24T06:46:11.926Z,99.90
2022-11-24T06:48:39.371Z,99.90
2022-11-24T06:51:08.399Z,99.90
2022-11-24T06:53:37.210Z,99.90
2022-11-24T06:56:09.459Z,99.90
2022-11-24T06:58:45.973Z,99.90
2022-11-24T07:01:32.882Z,99.90
2022-11-24T07:03:59.979Z,99.90
2022-11-24T07:06:27.019Z,99.90
2022-11-24T07:08:54.125Z,99.90
2022-11-24T07:11:23.601Z,99.90
2022-11-24T07:13:53.819Z,99.90
2022-11-24T07:16:26.422Z,99.90
2022-11-24T07:18:54.434Z,99.90
2022-11-24T07:21:23.806Z,99.90
2022-11-24T07:23:55.423Z,99.90
2022-11-24T07:26:23.406Z,99.90
2022-11-24T07:28:50.768Z,99.90
2022-11-24T07:31:21.359Z,99.90
2022-11-24T07:33:53.079Z,99.90
2022-11-24T07:36:20.263Z,99.90
2022-11-24T07:38:47.572Z,99.90
2022-11-24T07:41:16.185Z,99.90
2022-11-24T07:43:43.132Z,98.20
2022-11-24T07:46:12.572Z,99.00
2022-11-24T07:48:39.761Z,99.40
2022-11-24T07:51:07.260Z,98.70
2022-11-24T07:53:34.650Z,97.40
2022-11-24T07:56:03.615Z,97.90
2022-11-24T07:58:33.416Z,96.40
2022-11-24T08:01:08.267Z,97.90
2022-11-24T08:03:36.023Z,97.70
2022-11-24T08:08:49.795Z,95.50
2022-11-24T08:11:17.831Z,94.60
2022-11-24T08:13:44.965Z,95.10
2022-11-24T08:16:16.928Z,94.80
2022-11-24T08:18:44.595Z,94.10
2022-11-24T08:21:13.694Z,96.20
2022-11-24T08:23:40.880Z,93.70
2022-11-24T08:26:10.865Z,92.60
2022-11-24T08:28:37.759Z,92.60
2022-11-24T08:31:06.650Z,93.30
2022-11-24T08:33:33.655Z,93.00
2022-11-24T08:36:12.252Z,95.20
2022-11-24T08:38:39.445Z,95.20
2022-11-24T08:41:12.046Z,95.60
2022-11-24T08:43:39.484Z,93.90
2022-11-24T08:46:09.853Z,93.60
2022-11-24T08:48:37.212Z,94.80
2022-11-24T08:51:15.355Z,95.00
2022-11-24T08:53:42.855Z,95.50
2022-11-24T08:56:11.634Z,94.60
2022-11-24T08:58:39.061Z,94.00
2022-11-24T09:01:13.197Z,96.20
2022-11-24T09:03:46.343Z,96.70
2022-11-24T09:06:18.344Z,96.60
2022-11-24T09:08:45.266Z,94.60
2022-11-24T09:11:13.930Z,96.00
2022-11-24T09:13:40.823Z,95.90
2022-11-24T09:16:10.341Z,95.70
2022-11-24T09:18:37.782Z,96.50
2022-11-24T09:21:13.279Z,96.30
2022-11-24T09:23:40.616Z,95.90
2022-11-24T09:26:19.351Z,96.40
2022-11-24T09:28:46.606Z,95.90
2022-11-24T09:31:15.779Z,95.70
2022-11-24T09:33:43.669Z,96.40
2022-11-24T09:36:11.271Z,97.10
2022-11-24T09:38:38.377Z,97.00
2022-11-24T09:41:33.145Z,96.70
2022-11-24T09:44:18.738Z,98.10
2022-11-24T09:47:23.115Z,97.40
2022-11-24T09:50:05.189Z,98.50
2022-11-24T09:52:40.543Z,97.60
2022-11-24T09:55:51.751Z,97.40
2022-11-24T09:58:18.517Z,99.00
2022-11-24T10:00:48.452Z,97.30
2022-11-24T10:03:39.201Z,97.40
2022-11-24T10:06:24.523Z,97.40
2022-11-24T10:09:06.276Z,99.10
2022-11-24T10:12:10.183Z,98.80
2022-11-24T10:14:58.001Z,98.20
2022-11-24T10:18:16.174Z,97.50
2022-11-24T10:21:02.053Z,98.40
2022-11-24T10:23:56.556Z,96.80
2022-11-24T10:26:36.778Z,97.10
2022-11-24T10:29:12.760Z,96.60
2022-11-24T10:31:45.401Z,98.10
2022-11-24T10:34:17.895Z,96.50
2022-11-24T10:37:15.898Z,96.20
2022-11-24T10:40:00.768Z,95.60
2022-11-24T10:42:35.331Z,96.20
2022-11-24T10:45:14.042Z,97.20
2022-11-24T10:47:42.278Z,96.30
2022-11-24T10:50:25.750Z,94.80
2022-11-24T10:53:13.740Z,94.30
2022-11-24T10:55:55.840Z,95.80
2022-11-24T10:58:50.801Z,95.70
2022-11-24T11:01:17.561Z,97.20
2022-11-24T11:03:59.908Z,95.40
2022-11-24T11:06:31.914Z,95.20
2022-11-24T11:09:07.763Z,95.20
2022-11-24T11:11:36.272Z,96.50
2022-11-24T11:14:05.986Z,95.10
2022-11-24T11:16:51.858Z,96.70
2022-11-24T11:19:58.417Z,97.30
2022-11-24T11:22:30.624Z,96.10
2022-11-24T11:25:06.428Z,97.70
2022-11-24T11:27:33.265Z,96.90
2022-11-24T11:36:11.238Z,97.80
2022-11-24T11:38:39.761Z,97.10
2022-11-24T11:41:10.799Z,98.20
2022-11-24T11:43:40.772Z,99.00
2022-11-24T11:46:13.132Z,98.00
2022-11-24T11:48:44.123Z,98.10
2022-11-24T11:54:30.560Z,97.90
2022-11-24T11:57:17.638Z,97.90
2022-11-24T11:59:49.519Z,98.70
2022-11-24T12:02:29.663Z,97.50
2022-11-24T12:05:01.838Z,97.30
2022-11-24T12:07:37.856Z,97.80
2022-11-24T12:10:39.189Z,96.70
2022-11-24T12:13:24.085Z,97.60
2022-11-24T12:15:55.380Z,98.00
2022-11-24T12:18:58.027Z,97.80
2022-11-24T12:21:49.507Z,97.50
2022-11-24T12:24:28.259Z,98.20
2022-11-24T12:27:03.341Z,98.60
2022-11-24T12:29:58.135Z,98.90
2022-11-24T12:32:45.091Z,98.50
2022-11-24T12:35:21.482Z,98.50
2022-11-24T12:38:14.437Z,98.30
2022-11-24T12:41:40.262Z,98.20
2022-11-24T12:44:04.426Z,97.70
2022-11-24T12:46:43.160Z,97.50
2022-11-24T12:49:25.116Z,96.30
2022-11-24T12:51:59.655Z,97.70
2022-11-24T12:54:40.551Z,97.30
2022-11-24T12:57:19.223Z,97.30
2022-11-24T13:00:15.198Z,97.00
2022-11-24T13:03:14.297Z,97.40
2022-11-24T13:05:50.590Z,97.60
2022-11-24T13:08:17.538Z,97.70
2022-11-24T13:10:55.783Z,98.40
2022-11-24T13:13:28.069Z,97.80
2022-11-24T13:16:34.669Z,97.90
2022-11-24T13:18:52.194Z,98.20
2022-11-24T13:21:28.326Z,98.00
2022-11-24T13:24:18.576Z,96.90
2022-11-24T13:26:53.459Z,98.10
2022-11-24T13:29:32.227Z,96.60
2022-11-24T13:32:05.004Z,96.80
2022-11-24T13:34:40.868Z,97.70
2022-11-24T13:37:31.542Z,97.10
2022-11-24T13:40:14.516Z,97.90
2022-11-24T13:43:10.807Z,96.60
2022-11-24T13:45:41.188Z,97.70
2022-11-24T13:48:21.424Z,98.20
2022-11-24T13:50:52.163Z,98.70
2022-11-24T13:53:37.679Z,98.10
2022-11-24T13:56:13.673Z,98.60
2022-11-24T13:58:55.294Z,97.80
2022-11-24T14:01:42.395Z,98.90
2022-11-24T14:04:32.520Z,98.30
2022-11-24T14:07:08.007Z,98.60
2022-11-24T14:09:42.795Z,98.80
2022-11-24T14:12:22.592Z,99.40
2022-11-24T14:14:53.837Z,99.10
2022-11-24T14:17:25.827Z,99.50
2022-11-24T14:19:54.855Z,99.60
2022-11-24T14:22:33.007Z,99.60
2022-11-24T14:25:01.933Z,99.90
2022-11-24T14:27:38.421Z,99.90
2022-11-24T14:30:11.361Z,99.90
2022-11-24T14:32:38.203Z,99.90
2022-11-24T14:35:29.521Z,99.90
2022-11-24T14:37:56.406Z,99.90
2022-11-24T14:40:43.910Z,99.90
2022-11-24T14:43:30.336Z,99.90
2022-11-24T14:46:06.739Z,99.90
2022-11-24T14:48:37.910Z,99.90
2022-11-24T14:51:10.739Z,99.90
2022-11-24T14:53:46.877Z,99.90
2022-11-24T14:56:35.362Z,99.90
2022-11-24T14:59:02.369Z,99.90
2022-11-24T15:01:29.153Z,99.90
2022-11-24T15:04:38.833Z,99.90
2022-11-24T15:07:13.897Z,99.90
2022-11-24T15:09:58.517Z,99.90
2022-11-24T15:12:32.006Z,99.90
2022-11-24T15:15:04.157Z,99.90
2022-11-24T15:17:31.465Z,99.90
2022-11-24T15:20:09.649Z,99.90
2022-11-24T15:22:44.530Z,99.90
2022-11-24T15:25:28.383Z,99.90
2022-11-24T15:27:55.472Z,99.90
2022-11-24T15:30:22.534Z,99.90
2022-11-24T15:32:59.452Z,99.90
2022-11-24T15:35:30.195Z,99.90
2022-11-24T15:37:56.996Z,99.90
2022-11-24T15:40:24.567Z,99.90
2022-11-24T15:42:53.900Z,99.90
2022-11-24T15:45:22.210Z,99.90
2022-11-24T15:47:49.067Z,99.90
2022-11-24T15:50:16.304Z,99.90
2022-11-24T15:52:44.083Z,99.90
2022-11-24T15:55:21.998Z,99.90
2022-11-24T15:57:49.264Z,99.80
2022-11-24T16:00:21.917Z,99.90
2022-11-24T16:02:49.505Z,99.80
2022-11-24T16:05:17.664Z,99.90
2022-11-24T16:07:44.893Z,99.60
2022-11-24T16:10:28.242Z,99.90
2022-11-24T16:12:55.092Z,99.90
2022-11-24T16:15:21.860Z,99.90
2022-11-24T16:17:48.801Z,99.90
2022-11-24T16:20:16.117Z,99.90
2022-11-24T16:22:42.920Z,99.80
2022-11-24T16:25:10.834Z,99.80
2022-11-24T16:27:38.450Z,99.80
2022-11-24T16:30:06.568Z,99.90
2022-11-24T16:32:33.995Z,99.90
2022-11-24T16:35:01.166Z,99.50
2022-11-24T16:37:28.184Z,99.40
2022-11-24T16:39:55.029Z,99.20
2022-11-24T16:42:21.942Z,99.90
2022-11-24T16:44:49.027Z,99.90
2022-11-24T16:47:16.133Z,99.40
2022-11-24T16:49:42.961Z,99.60
2022-11-24T16:52:09.826Z,99.90
2022-11-24T16:54:36.928Z,99.90
2022-11-24T16:57:03.977Z,99.90
2022-11-24T16:59:30.816Z,99.90
2022-11-24T17:01:57.662Z,99.90
2022-11-24T17:04:25.347Z,99.90
2022-11-24T17:06:52.402Z,99.30
2022-11-24T17:09:19.472Z,99.50
2022-11-24T17:11:49.584Z,99.40
2022-11-24T17:14:16.800Z,99.20
2022-11-24T17:16:44.058Z,98.80
2022-11-24T17:19:10.925Z,99.80
2022-11-24T17:21:38.136Z,99.30
2022-11-24T17:24:06.771Z,99.20
2022-11-24T17:26:34.984Z,99.30
2022-11-24T17:29:02.307Z,99.60
2022-11-24T17:31:31.344Z,98.40
2022-11-24T17:34:00.005Z,99.40
2022-11-24T17:36:28.039Z,98.90
2022-11-24T17:38:55.173Z,98.60
2022-11-24T17:41:23.422Z,99.20
2022-11-24T17:43:51.243Z,99.40
2022-11-24T17:46:18.609Z,99.30
2022-11-24T17:48:46.254Z,99.10
2022-11-24T17:51:16.267Z,98.50
2022-11-24T17:53:44.888Z,98.80
2022-11-24T17:56:14.691Z,99.30
2022-11-24T17:58:43.250Z,98.00
2022-11-24T18:01:12.218Z,98.90
2022-11-24T18:03:40.184Z,98.70
2022-11-24T18:06:12.453Z,98.60
2022-11-24T18:08:41.999Z,98.20
2022-11-24T18:11:10.663Z,99.00
2022-11-24T18:13:56.741Z,99.00
2022-11-24T18:16:26.188Z,99.80
2022-11-24T18:19:07.420Z,99.90
2022-11-24T18:21:38.876Z,99.90
2022-11-24T18:24:07.140Z,99.90
2022-11-24T18:26:33.966Z,99.90
2022-11-24T18:29:01.182Z,99.90
2022-11-24T18:31:28.653Z,98.80
2022-11-24T18:33:55.883Z,99.20
2022-11-24T18:36:28.385Z,98.70
2022-11-24T18:38:57.660Z,99.20
2022-11-24T18:41:24.729Z,97.80
2022-11-24T18:43:51.947Z,98.30
2022-11-24T18:46:19.463Z,98.20
2022-11-24T18:48:47.170Z,98.00
2022-11-24T18:51:15.041Z,99.80
2022-11-24T18:53:46.699Z,99.70
2022-11-24T18:56:16.690Z,97.50
2022-11-24T18:58:45.243Z,98.20
2022-11-24T19:01:14.912Z,99.90
2022-11-24T19:06:33.981Z,99.70
2022-11-24T19:09:07.788Z,99.50
2022-11-24T19:11:37.594Z,97.60
2022-11-24T19:14:06.575Z,99.50
2022-11-24T19:16:36.204Z,99.20
2022-11-24T19:19:04.517Z,98.60
2022-11-24T19:21:33.580Z,99.10
2022-11-24T19:24:05.310Z,99.90
2022-11-24T19:26:34.637Z,99.10
2022-11-24T19:29:01.925Z,98.80
2022-11-24T19:31:29.300Z,98.10
2022-11-24T19:33:56.912Z,99.10
2022-11-24T19:36:24.395Z,97.20
2022-11-24T19:38:56.555Z,98.20
2022-11-24T19:41:29.335Z,98.40
2022-11-24T19:43:56.953Z,98.60
2022-11-24T19:46:25.862Z,98.60
2022-11-24T19:48:54.112Z,98.00
2022-11-24T19:51:46.716Z,97.70
2022-11-24T19:54:13.553Z,98.00
2022-11-24T19:56:40.848Z,98.20
2022-11-24T19:59:08.234Z,98.30
2022-11-24T20:01:37.924Z,97.40
2022-11-24T20:04:10.528Z,97.20
2022-11-24T20:06:40.397Z,97.40
2022-11-24T20:09:11.096Z,97.60
2022-11-24T20:11:39.296Z,97.80
2022-11-24T20:14:08.624Z,97.90
2022-11-24T20:16:35.679Z,98.70
2022-11-24T20:19:06.604Z,97.90
2022-11-24T20:21:37.911Z,97.60
2022-11-24T20:24:08.929Z,97.90
2022-11-24T20:26:48.594Z,97.90
2022-11-24T20:29:16.794Z,98.10
2022-11-24T20:31:47.729Z,97.20
2022-11-24T20:34:15.615Z,97.60
2022-11-24T20:36:45.406Z,98.30
2022-11-24T20:39:22.624Z,97.60
2022-11-24T20:41:49.947Z,98.70
2022-11-24T20:44:19.339Z,98.80
2022-11-24T20:46:46.755Z,98.20
2022-11-24T20:49:17.549Z,98.60
2022-11-24T20:51:45.159Z,97.90
2022-11-24T20:54:13.300Z,98.50
2022-11-24T20:56:42.973Z,99.00
2022-11-24T20:59:15.623Z,99.40
2022-11-24T21:01:45.534Z,99.10
2022-11-24T21:04:23.045Z,99.10
2022-11-24T21:06:50.086Z,99.20
2022-11-24T21:09:21.028Z,99.40
2022-11-24T21:11:48.272Z,99.70
2022-11-24T21:14:15.123Z,99.70
2022-11-24T21:16:42.838Z,99.90
2022-11-24T21:19:16.216Z,99.60
2022-11-24T21:21:43.421Z,99.90
2022-11-24T21:24:15.783Z,99.90
2022-11-24T21:26:45.314Z,99.90
2022-11-24T21:29:13.401Z,99.90
2022-11-24T21:31:40.423Z,99.90
2022-11-24T21:34:08.555Z,99.90
2022-11-24T21:36:36.134Z,99.90
2022-11-24T21:39:06.312Z,99.90
2022-11-24T21:41:33.770Z,99.90
2022-11-24T21:44:01.074Z,99.90
2022-11-24T21:46:29.123Z,99.90
2022-11-24T21:48:55.999Z,99.90
2022-11-24T21:51:22.779Z,99.90
2022-11-24T21:53:49.641Z,99.90
2022-11-24T21:56:18.995Z,99.90
2022-11-24T21:58:54.705Z,99.90
2022-11-24T22:01:24.248Z,99.90
2022-11-24T22:03:51.435Z,99.90
2022-11-24T22:06:19.425Z,99.90
2022-11-24T22:08:47.749Z,99.90
2022-11-24T22:11:19.829Z,99.90
2022-11-24T22:13:46.914Z,99.90
2022-11-24T22:16:16.487Z,99.90
2022-11-24T22:18:44.709Z,99.90
2022-11-24T22:21:16.809Z,99.90
2022-11-24T22:23:44.842Z,99.90
2022-11-24T22:26:16.941Z,99.90
2022-11-24T22:28:44.900Z,99.90
2022-11-24T22:31:20.685Z,99.90
2022-11-24T22:33:48.361Z,99.90
2022-11-24T22:36:16.467Z,99.90
2022-11-24T22:38:43.593Z,99.90
2022-11-24T22:41:19.609Z,99.90
2022-11-24T22:43:46.564Z,99.90
2022-11-24T22:46:18.612Z,99.90
2022-11-24T22:48:47.003Z,99.90
2022-11-24T22:51:19.539Z,99.90
2022-11-24T22:53:57.085Z,99.90
2022-11-24T22:56:24.719Z,99.90
2022-11-24T22:58:51.600Z,99.90
2022-11-24T23:01:21.216Z,99.90
2022-11-24T23:03:49.241Z,99.90
2022-11-24T23:06:18.802Z,99.90
2022-11-24T23:08:45.986Z,99.90
2022-11-24T23:11:15.685Z,99.90
2022-11-24T23:13:43.638Z,99.90
2022-11-24T23:16:16.248Z,99.90
2022-11-24T23:18:44.614Z,99.90
2022-11-24T23:21:13.325Z,99.90
2022-11-24T23:23:40.810Z,99.90
2022-11-24T23:26:16.883Z,99.90
2022-11-24T23:28:43.674Z,99.90
2022-11-24T23:31:13.831Z,99.90
2022-11-24T23:33:41.151Z,99.90
2022-11-24T23:36:13.234Z,99.90
2022-11-24T23:38:40.715Z,99.90
2022-11-24T23:41:10.403Z,99.90
2022-11-24T23:43:38.600Z,99.90
2022-11-24T23:46:07.959Z,99.90
2022-11-24T23:48:35.485Z,99.90
2022-11-24T23:51:16.271Z,99.90
2022-11-24T23:53:43.918Z,99.90
2022-11-24T23:56:16.125Z,99.90
2022-11-24T23:58:43.035Z,99.90
